sensor_id;sensor_type;location;lat;lon;timestamp;temperature;humidity
13264;DHT22;6700;51.988;7.646;2023-12-29T00:00:13;10.50;99.90
13264;DHT22;6700;51.988;7.646;2023-12-29T00:02:39;10.40;99.90
13264;DHT22;6700;51.988;7.646;2023-12-29T00:05:06;10.50;99.90
13264;DHT22;6700;51.988;7.646;2023-12-29T00:07:33;10.50;99.90
13264;DHT22;6700;51.988;7.646;2023-12-29T00:10:00;10.50;99.90
13264;DHT22;6700;51.988;7.646;2023-12-29T00:12:27;10.50;99.90
13264;DHT22;6700;51.988;7.646;2023-12-29T00:14:53;10.50;99.90
13264;DHT22;6700;51.988;7.646;2023-12-29T00:17:20;10.50;99.90
13264;DHT22;6700;51.988;7.646;2023-12-29T00:19:47;10.50;99.90
13264;DHT22;6700;51.988;7.646;2023-12-29T00:22:14;10.50;99.90
13264;DHT22;6700;51.988;7.646;2023-12-29T00:24:40;10.50;99.90
13264;DHT22;6700;51.988;7.646;2023-12-29T00:27:07;10.40;99.90
13264;DHT22;6700;51.988;7.646;2023-12-29T00:29:34;10.40;99.90
13264;DHT22;6700;51.988;7.646;2023-12-29T00:32:01;10.50;99.90
13264;DHT22;6700;51.988;7.646;2023-12-29T00:34:30;10.40;99.90
13264;DHT22;6700;51.988;7.646;2023-12-29T00:36:57;10.50;99.90
13264;DHT22;6700;51.988;7.646;2023-12-29T00:39:24;10.50;99.90
13264;DHT22;6700;51.988;7.646;2023-12-29T00:41:55;10.50;99.90
13264;DHT22;6700;51.988;7.646;2023-12-29T00:44:23;10.40;99.90
13264;DHT22;6700;51.988;7.646;2023-12-29T00:46:50;10.50;99.90
13264;DHT22;6700;51.988;7.646;2023-12-29T00:49:16;10.50;99.90
13264;DHT22;6700;51.988;7.646;2023-12-29T00:51:43;10.50;99.90
13264;DHT22;6700;51.988;7.646;2023-12-29T00:54:10;10.50;99.90
13264;DHT22;6700;51.988;7.646;2023-12-29T00:56:37;10.50;99.90
13264;DHT22;6700;51.988;7.646;2023-12-29T00:59:04;10.50;99.90
13264;DHT22;6700;51.988;7.646;2023-12-29T01:01:34;10.50;99.90
13264;DHT22;6700;51.988;7.646;2023-12-29T01:04:01;10.50;99.90
13264;DHT22;6700;51.988;7.646;2023-12-29T01:06:28;10.50;99.90
13264;DHT22;6700;51.988;7.646;2023-12-29T01:08:55;10.50;99.90
13264;DHT22;6700;51.988;7.646;2023-12-29T01:11:22;10.50;99.90
13264;DHT22;6700;51.988;7.646;2023-12-29T01:13:49;10.40;99.90
13264;DHT22;6700;51.988;7.646;2023-12-29T01:16:16;10.40;99.90
13264;DHT22;6700;51.988;7.646;2023-12-29T01:18:42;10.50;99.90
13264;DHT22;6700;51.988;7.646;2023-12-29T01:21:10;10.50;99.90
13264;DHT22;6700;51.988;7.646;2023-12-29T01:23:36;10.50;99.90
13264;DHT22;6700;51.988;7.646;2023-12-29T01:26:03;10.50;99.90
13264;DHT22;6700;51.988;7.646;2023-12-29T01:28:29;10.50;99.90
13264;DHT22;6700;51.988;7.646;2023-12-29T01:30:56;10.50;99.90
13264;DHT22;6700;51.988;7.646;2023-12-29T01:33:23;10.50;99.90
13264;DHT22;6700;51.988;7.646;2023-12-29T01:35:50;10.50;99.90
13264;DHT22;6700;51.988;7.646;2023-12-29T01:38:16;10.50;99.90
13264;DHT22;6700;51.988;7.646;2023-12-29T01:40:44;10.50;99.90
13264;DHT22;6700;51.988;7.646;2023-12-29T01:43:11;10.50;99.90
13264;DHT22;6700;51.988;7.646;2023-12-29T01:45:38;10.50;99.90
13264;DHT22;6700;51.988;7.646;2023-12-29T01:48:21;10.50;99.90
13264;DHT22;6700;51.988;7.646;2023-12-29T01:50:48;10.50;99.90
13264;DHT22;6700;51.988;7.646;2023-12-29T01:53:15;10.50;99.90
13264;DHT22;6700;51.988;7.646;2023-12-29T01:55:43;10.60;99.90
13264;DHT22;6700;51.988;7.646;2023-12-29T01:58:10;10.60;99.90
13264;DHT22;6700;51.988;7.646;2023-12-29T02:00:37;10.60;99.90
13264;DHT22;6700;51.988;7.646;2023-12-29T02:03:04;10.60;99.90
13264;DHT22;6700;51.988;7.646;2023-12-29T02:05:31;10.60;99.90
13264;DHT22;6700;51.988;7.646;2023-12-29T02:08:01;10.40;99.90
13264;DHT22;6700;51.988;7.646;2023-12-29T02:10:30;10.20;99.90
13264;DHT22;6700;51.988;7.646;2023-12-29T02:12:57;10.10;99.90
13264;DHT22;6700;51.988;7.646;2023-12-29T02:15:26;9.90;99.90
13264;DHT22;6700;51.988;7.646;2023-12-29T02:17:58;9.80;99.90
13264;DHT22;6700;51.988;7.646;2023-12-29T02:20:26;9.70;99.90
13264;DHT22;6700;51.988;7.646;2023-12-29T02:22:53;9.50;99.90
13264;DHT22;6700;51.988;7.646;2023-12-29T02:25:21;9.50;99.90
13264;DHT22;6700;51.988;7.646;2023-12-29T02:30:50;9.40;99.90
13264;DHT22;6700;51.988;7.646;2023-12-29T02:33:19;9.40;99.90
13264;DHT22;6700;51.988;7.646;2023-12-29T02:35:46;9.30;99.90
13264;DHT22;6700;51.988;7.646;2023-12-29T02:38:15;9.30;99.90
13264;DHT22;6700;51.988;7.646;2023-12-29T02:40:42;9.30;99.90
13264;DHT22;6700;51.988;7.646;2023-12-29T02:43:09;9.30;99.90
13264;DHT22;6700;51.988;7.646;2023-12-29T02:45:36;9.30;99.90
13264;DHT22;6700;51.988;7.646;2023-12-29T02:48:02;9.30;99.90
13264;DHT22;6700;51.988;7.646;2023-12-29T02:50:30;9.30;99.90
13264;DHT22;6700;51.988;7.646;2023-12-29T02:52:56;9.30;99.90
13264;DHT22;6700;51.988;7.646;2023-12-29T02:55:23;9.30;99.90
13264;DHT22;6700;51.988;7.646;2023-12-29T02:57:50;9.20;99.90
13264;DHT22;6700;51.988;7.646;2023-12-29T03:00:17;9.30;99.90
13264;DHT22;6700;51.988;7.646;2023-12-29T03:02:43;9.30;99.90
13264;DHT22;6700;51.988;7.646;2023-12-29T03:05:11;9.20;99.90
13264;DHT22;6700;51.988;7.646;2023-12-29T03:07:38;9.20;99.90
13264;DHT22;6700;51.988;7.646;2023-12-29T03:10:06;9.20;99.90
13264;DHT22;6700;51.988;7.646;2023-12-29T03:12:33;9.30;99.90
13264;DHT22;6700;51.988;7.646;2023-12-29T03:15:00;9.30;99.90
13264;DHT22;6700;51.988;7.646;2023-12-29T03:17:26;9.30;99.90
13264;DHT22;6700;51.988;7.646;2023-12-29T03:19:53;9.30;99.90
13264;DHT22;6700;51.988;7.646;2023-12-29T03:22:20;9.30;99.90
13264;DHT22;6700;51.988;7.646;2023-12-29T03:24:48;9.40;99.90
13264;DHT22;6700;51.988;7.646;2023-12-29T03:27:14;9.40;99.90
13264;DHT22;6700;51.988;7.646;2023-12-29T03:29:41;9.30;99.90
13264;DHT22;6700;51.988;7.646;2023-12-29T03:32:09;9.30;99.90
13264;DHT22;6700;51.988;7.646;2023-12-29T03:34:35;9.30;99.90
13264;DHT22;6700;51.988;7.646;2023-12-29T03:37:02;9.30;99.90
13264;DHT22;6700;51.988;7.646;2023-12-29T03:39:29;9.30;99.90
13264;DHT22;6700;51.988;7.646;2023-12-29T03:41:56;9.30;99.90
13264;DHT22;6700;51.988;7.646;2023-12-29T03:44:23;9.20;99.90
13264;DHT22;6700;51.988;7.646;2023-12-29T03:46:50;9.30;99.90
13264;DHT22;6700;51.988;7.646;2023-12-29T03:49:17;9.20;99.90
13264;DHT22;6700;51.988;7.646;2023-12-29T03:51:46;9.20;99.90
13264;DHT22;6700;51.988;7.646;2023-12-29T03:54:12;9.20;99.90
13264;DHT22;6700;51.988;7.646;2023-12-29T03:56:39;9.20;99.90
13264;DHT22;6700;51.988;7.646;2023-12-29T03:59:06;9.20;99.90
13264;DHT22;6700;51.988;7.646;2023-12-29T04:01:33;9.20;99.90
13264;DHT22;6700;51.988;7.646;2023-12-29T04:04:00;9.20;99.90
13264;DHT22;6700;51.988;7.646;2023-12-29T04:06:26;9.20;99.90
13264;DHT22;6700;51.988;7.646;2023-12-29T04:08:53;9.20;99.90
13264;DHT22;6700;51.988;7.646;2023-12-29T04:11:20;9.20;99.90
13264;DHT22;6700;51.988;7.646;2023-12-29T04:13:46;9.30;99.90
13264;DHT22;6700;51.988;7.646;2023-12-29T04:16:13;9.30;99.90
13264;DHT22;6700;51.988;7.646;2023-12-29T04:18:40;9.30;99.90
13264;DHT22;6700;51.988;7.646;2023-12-29T04:21:07;9.30;99.90
13264;DHT22;6700;51.988;7.646;2023-12-29T04:23:35;9.30;99.90
13264;DHT22;6700;51.988;7.646;2023-12-29T04:26:02;9.30;99.90
13264;DHT22;6700;51.988;7.646;2023-12-29T04:28:29;9.30;99.90
13264;DHT22;6700;51.988;7.646;2023-12-29T04:30:55;9.30;99.90
13264;DHT22;6700;51.988;7.646;2023-12-29T04:33:22;9.30;99.90
13264;DHT22;6700;51.988;7.646;2023-12-29T04:35:49;9.30;99.90
13264;DHT22;6700;51.988;7.646;2023-12-29T04:38:16;9.30;99.90
13264;DHT22;6700;51.988;7.646;2023-12-29T04:40:45;9.30;99.90
13264;DHT22;6700;51.988;7.646;2023-12-29T04:43:12;9.40;99.90
13264;DHT22;6700;51.988;7.646;2023-12-29T04:45:38;9.40;99.90
13264;DHT22;6700;51.988;7.646;2023-12-29T04:48:05;9.40;99.90
13264;DHT22;6700;51.988;7.646;2023-12-29T04:50:32;9.40;99.90
13264;DHT22;6700;51.988;7.646;2023-12-29T04:52:59;9.40;99.90
13264;DHT22;6700;51.988;7.646;2023-12-29T04:55:25;9.40;99.90
13264;DHT22;6700;51.988;7.646;2023-12-29T04:57:52;9.40;99.90
13264;DHT22;6700;51.988;7.646;2023-12-29T05:00:19;9.40;99.90
13264;DHT22;6700;51.988;7.646;2023-12-29T05:02:46;9.40;99.90
13264;DHT22;6700;51.988;7.646;2023-12-29T05:05:12;9.50;99.90
13264;DHT22;6700;51.988;7.646;2023-12-29T05:07:39;9.50;99.90
13264;DHT22;6700;51.988;7.646;2023-12-29T05:10:06;9.50;99.90
13264;DHT22;6700;51.988;7.646;2023-12-29T05:12:33;9.50;99.90
13264;DHT22;6700;51.988;7.646;2023-12-29T05:15:00;9.50;99.90
13264;DHT22;6700;51.988;7.646;2023-12-29T05:17:26;9.50;99.90
13264;DHT22;6700;51.988;7.646;2023-12-29T05:19:53;9.50;99.90
13264;DHT22;6700;51.988;7.646;2023-12-29T05:22:20;9.60;99.90
13264;DHT22;6700;51.988;7.646;2023-12-29T05:24:47;9.50;99.90
13264;DHT22;6700;51.988;7.646;2023-12-29T05:27:14;9.60;99.90
13264;DHT22;6700;51.988;7.646;2023-12-29T05:29:41;9.60;99.90
13264;DHT22;6700;51.988;7.646;2023-12-29T05:32:07;9.60;99.90
13264;DHT22;6700;51.988;7.646;2023-12-29T05:34:35;9.60;99.90
13264;DHT22;6700;51.988;7.646;2023-12-29T05:37:01;9.70;99.90
13264;DHT22;6700;51.988;7.646;2023-12-29T05:39:28;9.60;99.90
13264;DHT22;6700;51.988;7.646;2023-12-29T05:41:55;9.70;99.90
13264;DHT22;6700;51.988;7.646;2023-12-29T05:44:22;9.70;99.90
13264;DHT22;6700;51.988;7.646;2023-12-29T05:46:49;9.70;99.90
13264;DHT22;6700;51.988;7.646;2023-12-29T05:49:16;9.70;99.90
13264;DHT22;6700;51.988;7.646;2023-12-29T05:51:43;9.70;99.90
13264;DHT22;6700;51.988;7.646;2023-12-29T05:54:11;9.70;99.90
13264;DHT22;6700;51.988;7.646;2023-12-29T05:56:37;9.70;99.90
13264;DHT22;6700;51.988;7.646;2023-12-29T05:59:04;9.70;99.90
13264;DHT22;6700;51.988;7.646;2023-12-29T06:01:31;9.80;99.90
13264;DHT22;6700;51.988;7.646;2023-12-29T06:03:58;9.80;99.90
13264;DHT22;6700;51.988;7.646;2023-12-29T06:06:25;9.70;99.90
13264;DHT22;6700;51.988;7.646;2023-12-29T06:08:51;9.70;99.90
13264;DHT22;6700;51.988;7.646;2023-12-29T06:11:18;9.70;99.90
13264;DHT22;6700;51.988;7.646;2023-12-29T06:13:45;9.80;99.90
13264;DHT22;6700;51.988;7.646;2023-12-29T06:16:20;9.80;99.90
13264;DHT22;6700;51.988;7.646;2023-12-29T06:18:47;9.80;99.90
13264;DHT22;6700;51.988;7.646;2023-12-29T06:21:14;9.80;99.90
13264;DHT22;6700;51.988;7.646;2023-12-29T06:23:41;9.80;99.90
13264;DHT22;6700;51.988;7.646;2023-12-29T06:26:17;9.70;99.90
13264;DHT22;6700;51.988;7.646;2023-12-29T06:28:45;9.80;99.90
13264;DHT22;6700;51.988;7.646;2023-12-29T06:31:12;9.80;99.90
13264;DHT22;6700;51.988;7.646;2023-12-29T06:33:42;9.80;99.90
13264;DHT22;6700;51.988;7.646;2023-12-29T06:36:09;9.80;99.90
13264;DHT22;6700;51.988;7.646;2023-12-29T06:38:36;9.80;99.90
13264;DHT22;6700;51.988;7.646;2023-12-29T06:41:03;9.80;99.90
13264;DHT22;6700;51.988;7.646;2023-12-29T06:43:33;9.90;99.90
13264;DHT22;6700;51.988;7.646;2023-12-29T06:46:00;9.90;99.90
13264;DHT22;6700;51.988;7.646;2023-12-29T06:48:27;9.80;99.90
13264;DHT22;6700;51.988;7.646;2023-12-29T06:50:54;9.90;99.90
13264;DHT22;6700;51.988;7.646;2023-12-29T06:53:21;9.80;99.90
13264;DHT22;6700;51.988;7.646;2023-12-29T06:55:48;9.90;99.90
13264;DHT22;6700;51.988;7.646;2023-12-29T06:58:14;9.90;99.90
13264;DHT22;6700;51.988;7.646;2023-12-29T07:00:41;9.90;99.90
13264;DHT22;6700;51.988;7.646;2023-12-29T07:03:12;9.90;99.90
13264;DHT22;6700;51.988;7.646;2023-12-29T07:05:39;9.90;99.90
13264;DHT22;6700;51.988;7.646;2023-12-29T07:08:05;9.90;99.90
13264;DHT22;6700;51.988;7.646;2023-12-29T07:10:32;9.90;99.90
13264;DHT22;6700;51.988;7.646;2023-12-29T07:12:59;9.90;99.90
13264;DHT22;6700;51.988;7.646;2023-12-29T07:15:25;9.90;99.90
13264;DHT22;6700;51.988;7.646;2023-12-29T07:17:52;9.90;99.90
13264;DHT22;6700;51.988;7.646;2023-12-29T07:20:19;9.90;99.90
13264;DHT22;6700;51.988;7.646;2023-12-29T07:22:45;9.90;99.90
13264;DHT22;6700;51.988;7.646;2023-12-29T07:25:13;9.90;99.90
13264;DHT22;6700;51.988;7.646;2023-12-29T07:27:40;9.80;99.90
13264;DHT22;6700;51.988;7.646;2023-12-29T07:30:07;9.80;99.90
13264;DHT22;6700;51.988;7.646;2023-12-29T07:32:34;9.80;99.90
13264;DHT22;6700;51.988;7.646;2023-12-29T07:35:00;9.80;99.90
13264;DHT22;6700;51.988;7.646;2023-12-29T07:37:27;9.90;99.90
13264;DHT22;6700;51.988;7.646;2023-12-29T07:39:54;9.80;99.90
13264;DHT22;6700;51.988;7.646;2023-12-29T07:42:21;9.90;99.90
13264;DHT22;6700;51.988;7.646;2023-12-29T07:44:47;9.90;99.90
13264;DHT22;6700;51.988;7.646;2023-12-29T07:47:14;9.90;99.90
13264;DHT22;6700;51.988;7.646;2023-12-29T07:49:41;9.90;99.90
13264;DHT22;6700;51.988;7.646;2023-12-29T07:52:08;9.90;99.90
13264;DHT22;6700;51.988;7.646;2023-12-29T07:54:35;9.80;99.90
13264;DHT22;6700;51.988;7.646;2023-12-29T07:57:02;9.90;99.90
13264;DHT22;6700;51.988;7.646;2023-12-29T07:59:29;9.90;99.90
13264;DHT22;6700;51.988;7.646;2023-12-29T08:01:55;9.90;99.90
13264;DHT22;6700;51.988;7.646;2023-12-29T08:04:24;9.90;99.90
13264;DHT22;6700;51.988;7.646;2023-12-29T08:06:51;9.80;99.90
13264;DHT22;6700;51.988;7.646;2023-12-29T08:09:17;9.80;99.90
13264;DHT22;6700;51.988;7.646;2023-12-29T08:11:44;9.60;99.90
13264;DHT22;6700;51.988;7.646;2023-12-29T08:14:11;9.60;99.90
13264;DHT22;6700;51.988;7.646;2023-12-29T08:16:39;9.50;99.90
13264;DHT22;6700;51.988;7.646;2023-12-29T08:19:06;9.40;99.90
13264;DHT22;6700;51.988;7.646;2023-12-29T08:21:34;9.40;99.90
13264;DHT22;6700;51.988;7.646;2023-12-29T08:24:01;9.30;99.90
13264;DHT22;6700;51.988;7.646;2023-12-29T08:26:28;9.30;99.90
13264;DHT22;6700;51.988;7.646;2023-12-29T08:28:55;9.20;99.90
13264;DHT22;6700;51.988;7.646;2023-12-29T08:31:23;9.20;99.90
13264;DHT22;6700;51.988;7.646;2023-12-29T08:33:51;9.20;99.90
13264;DHT22;6700;51.988;7.646;2023-12-29T08:36:18;9.20;99.90
13264;DHT22;6700;51.988;7.646;2023-12-29T08:38:45;9.10;99.90
13264;DHT22;6700;51.988;7.646;2023-12-29T08:41:13;9.10;99.90
13264;DHT22;6700;51.988;7.646;2023-12-29T08:43:40;9.10;99.90
13264;DHT22;6700;51.988;7.646;2023-12-29T08:46:07;9.10;99.90
13264;DHT22;6700;51.988;7.646;2023-12-29T08:48:34;9.10;99.90
13264;DHT22;6700;51.988;7.646;2023-12-29T08:51:01;9.10;99.90
13264;DHT22;6700;51.988;7.646;2023-12-29T08:53:28;9.00;99.90
13264;DHT22;6700;51.988;7.646;2023-12-29T08:55:57;9.10;99.90
13264;DHT22;6700;51.988;7.646;2023-12-29T08:58:24;9.10;99.90
13264;DHT22;6700;51.988;7.646;2023-12-29T09:00:50;9.10;99.90
13264;DHT22;6700;51.988;7.646;2023-12-29T09:03:17;9.10;99.90
13264;DHT22;6700;51.988;7.646;2023-12-29T09:05:44;9.10;99.90
13264;DHT22;6700;51.988;7.646;2023-12-29T09:08:11;9.10;99.90
13264;DHT22;6700;51.988;7.646;2023-12-29T09:10:37;9.10;99.90
13264;DHT22;6700;51.988;7.646;2023-12-29T09:13:06;9.20;99.90
13264;DHT22;6700;51.988;7.646;2023-12-29T09:15:32;9.20;99.90
13264;DHT22;6700;51.988;7.646;2023-12-29T09:18:04;9.20;99.90
13264;DHT22;6700;51.988;7.646;2023-12-29T09:20:33;9.30;99.90
13264;DHT22;6700;51.988;7.646;2023-12-29T09:23:00;9.30;99.90
13264;DHT22;6700;51.988;7.646;2023-12-29T09:25:29;9.30;99.90
13264;DHT22;6700;51.988;7.646;2023-12-29T09:27:56;9.30;99.90
13264;DHT22;6700;51.988;7.646;2023-12-29T09:30:24;9.30;99.90
13264;DHT22;6700;51.988;7.646;2023-12-29T09:32:51;9.40;99.90
13264;DHT22;6700;51.988;7.646;2023-12-29T09:35:17;9.40;99.90
13264;DHT22;6700;51.988;7.646;2023-12-29T09:37:44;9.40;99.90
13264;DHT22;6700;51.988;7.646;2023-12-29T09:40:11;9.40;99.90
13264;DHT22;6700;51.988;7.646;2023-12-29T09:42:38;9.40;99.90
13264;DHT22;6700;51.988;7.646;2023-12-29T09:45:07;9.40;99.90
13264;DHT22;6700;51.988;7.646;2023-12-29T09:47:34;9.40;99.90
13264;DHT22;6700;51.988;7.646;2023-12-29T09:50:03;9.40;99.90
13264;DHT22;6700;51.988;7.646;2023-12-29T09:52:31;9.40;99.90
13264;DHT22;6700;51.988;7.646;2023-12-29T09:54:58;9.50;99.90
13264;DHT22;6700;51.988;7.646;2023-12-29T09:57:25;9.50;99.90
13264;DHT22;6700;51.988;7.646;2023-12-29T09:59:52;9.50;99.90
13264;DHT22;6700;51.988;7.646;2023-12-29T10:02:20;9.50;99.90
13264;DHT22;6700;51.988;7.646;2023-12-29T10:04:50;9.60;99.90
13264;DHT22;6700;51.988;7.646;2023-12-29T10:07:24;9.60;99.90
13264;DHT22;6700;51.988;7.646;2023-12-29T10:09:55;9.70;99.90
13264;DHT22;6700;51.988;7.646;2023-12-29T10:12:23;9.70;99.90
13264;DHT22;6700;51.988;7.646;2023-12-29T10:18:06;9.80;99.90
13264;DHT22;6700;51.988;7.646;2023-12-29T10:20:23;9.80;99.90
13264;DHT22;6700;51.988;7.646;2023-12-29T10:25:33;9.90;99.90
13264;DHT22;6700;51.988;7.646;2023-12-29T10:28:00;9.90;99.90
13264;DHT22;6700;51.988;7.646;2023-12-29T10:30:28;9.90;99.90
13264;DHT22;6700;51.988;7.646;2023-12-29T10:33:01;9.90;99.90
13264;DHT22;6700;51.988;7.646;2023-12-29T10:35:30;9.90;99.90
13264;DHT22;6700;51.988;7.646;2023-12-29T10:38:08;9.90;99.90
13264;DHT22;6700;51.988;7.646;2023-12-29T10:40:35;9.90;99.90
13264;DHT22;6700;51.988;7.646;2023-12-29T10:43:01;9.90;99.90
13264;DHT22;6700;51.988;7.646;2023-12-29T10:45:33;10.00;99.90
13264;DHT22;6700;51.988;7.646;2023-12-29T10:48:00;9.90;99.90
13264;DHT22;6700;51.988;7.646;2023-12-29T10:50:27;10.00;99.90
13264;DHT22;6700;51.988;7.646;2023-12-29T10:53:12;10.00;99.90
13264;DHT22;6700;51.988;7.646;2023-12-29T10:55:40;10.00;99.90
13264;DHT22;6700;51.988;7.646;2023-12-29T10:58:08;10.00;99.90
13264;DHT22;6700;51.988;7.646;2023-12-29T11:00:35;10.00;99.90
13264;DHT22;6700;51.988;7.646;2023-12-29T11:03:02;9.90;99.90
13264;DHT22;6700;51.988;7.646;2023-12-29T11:05:30;9.90;99.90
13264;DHT22;6700;51.988;7.646;2023-12-29T11:07:57;9.90;99.90
13264;DHT22;6700;51.988;7.646;2023-12-29T11:10:26;9.90;99.90
13264;DHT22;6700;51.988;7.646;2023-12-29T11:12:54;9.80;99.90
13264;DHT22;6700;51.988;7.646;2023-12-29T11:15:21;9.90;99.90
13264;DHT22;6700;51.988;7.646;2023-12-29T11:17:50;9.90;99.90
13264;DHT22;6700;51.988;7.646;2023-12-29T11:20:19;10.00;99.90
13264;DHT22;6700;51.988;7.646;2023-12-29T11:22:47;10.10;99.90
13264;DHT22;6700;51.988;7.646;2023-12-29T11:25:14;10.10;99.90
13264;DHT22;6700;51.988;7.646;2023-12-29T11:27:43;10.20;99.90
13264;DHT22;6700;51.988;7.646;2023-12-29T11:30:11;10.30;99.90
13264;DHT22;6700;51.988;7.646;2023-12-29T11:32:49;10.30;99.90
13264;DHT22;6700;51.988;7.646;2023-12-29T11:38:26;10.40;99.90
13264;DHT22;6700;51.988;7.646;2023-12-29T11:43:59;10.50;99.90
13264;DHT22;6700;51.988;7.646;2023-12-29T11:46:38;10.60;99.90
13264;DHT22;6700;51.988;7.646;2023-12-29T11:49:06;10.50;99.90
13264;DHT22;6700;51.988;7.646;2023-12-29T11:51:45;10.50;99.90
13264;DHT22;6700;51.988;7.646;2023-12-29T11:54:26;10.40;99.90
13264;DHT22;6700;51.988;7.646;2023-12-29T11:56:54;10.50;99.90
13264;DHT22;6700;51.988;7.646;2023-12-29T12:01:51;10.40;99.90
13264;DHT22;6700;51.988;7.646;2023-12-29T12:04:43;10.40;99.90
13264;DHT22;6700;51.988;7.646;2023-12-29T12:12:50;10.50;99.90
13264;DHT22;6700;51.988;7.646;2023-12-29T12:18:04;10.60;99.90
13264;DHT22;6700;51.988;7.646;2023-12-29T12:20:35;10.50;99.90
13264;DHT22;6700;51.988;7.646;2023-12-29T12:23:17;10.50;99.90
13264;DHT22;6700;51.988;7.646;2023-12-29T12:25:46;10.50;99.90
13264;DHT22;6700;51.988;7.646;2023-12-29T12:28:15;10.40;99.90
13264;DHT22;6700;51.988;7.646;2023-12-29T12:30:42;10.50;99.90
13264;DHT22;6700;51.988;7.646;2023-12-29T12:33:09;10.40;99.90
13264;DHT22;6700;51.988;7.646;2023-12-29T12:35:39;10.50;99.90
13264;DHT22;6700;51.988;7.646;2023-12-29T12:38:13;10.40;99.90
13264;DHT22;6700;51.988;7.646;2023-12-29T12:40:41;10.50;99.90
13264;DHT22;6700;51.988;7.646;2023-12-29T12:43:07;10.60;99.90
13264;DHT22;6700;51.988;7.646;2023-12-29T12:45:41;10.60;99.90
13264;DHT22;6700;51.988;7.646;2023-12-29T12:49:02;10.70;99.90
13264;DHT22;6700;51.988;7.646;2023-12-29T12:51:22;10.70;99.90
13264;DHT22;6700;51.988;7.646;2023-12-29T12:53:49;10.70;99.90
13264;DHT22;6700;51.988;7.646;2023-12-29T12:56:18;10.80;99.90
13264;DHT22;6700;51.988;7.646;2023-12-29T12:58:46;10.90;99.90
13264;DHT22;6700;51.988;7.646;2023-12-29T13:01:14;10.90;99.90
13264;DHT22;6700;51.988;7.646;2023-12-29T13:03:43;10.90;99.90
13264;DHT22;6700;51.988;7.646;2023-12-29T13:06:12;10.90;99.90
13264;DHT22;6700;51.988;7.646;2023-12-29T13:08:39;10.90;99.90
13264;DHT22;6700;51.988;7.646;2023-12-29T13:11:10;10.80;99.90
13264;DHT22;6700;51.988;7.646;2023-12-29T13:13:40;10.90;99.90
13264;DHT22;6700;51.988;7.646;2023-12-29T13:16:08;10.80;99.90
13264;DHT22;6700;51.988;7.646;2023-12-29T13:18:35;10.80;99.90
13264;DHT22;6700;51.988;7.646;2023-12-29T13:21:03;10.80;99.90
13264;DHT22;6700;51.988;7.646;2023-12-29T13:23:31;10.70;99.90
13264;DHT22;6700;51.988;7.646;2023-12-29T13:26:01;10.60;99.90
13264;DHT22;6700;51.988;7.646;2023-12-29T13:28:29;10.70;99.90
13264;DHT22;6700;51.988;7.646;2023-12-29T13:31:00;10.70;99.90
13264;DHT22;6700;51.988;7.646;2023-12-29T13:33:42;10.60;99.90
13264;DHT22;6700;51.988;7.646;2023-12-29T13:36:36;10.60;99.90
13264;DHT22;6700;51.988;7.646;2023-12-29T13:39:27;10.60;99.90
13264;DHT22;6700;51.988;7.646;2023-12-29T13:42:00;10.70;99.90
13264;DHT22;6700;51.988;7.646;2023-12-29T13:44:30;10.60;99.90
13264;DHT22;6700;51.988;7.646;2023-12-29T13:46:57;10.60;99.90
13264;DHT22;6700;51.988;7.646;2023-12-29T13:49:28;10.50;99.90
13264;DHT22;6700;51.988;7.646;2023-12-29T13:52:00;10.50;99.90
13264;DHT22;6700;51.988;7.646;2023-12-29T13:54:27;10.60;99.90
13264;DHT22;6700;51.988;7.646;2023-12-29T13:56:57;10.50;99.90
13264;DHT22;6700;51.988;7.646;2023-12-29T13:59:31;10.40;99.90
13264;DHT22;6700;51.988;7.646;2023-12-29T14:02:24;10.50;99.90
13264;DHT22;6700;51.988;7.646;2023-12-29T14:05:23;10.40;99.90
13264;DHT22;6700;51.988;7.646;2023-12-29T14:08:04;10.40;99.90
13264;DHT22;6700;51.988;7.646;2023-12-29T14:10:37;10.40;99.90
13264;DHT22;6700;51.988;7.646;2023-12-29T14:13:13;10.40;99.90
13264;DHT22;6700;51.988;7.646;2023-12-29T14:15:42;10.40;99.90
